This is the latest recevied weather packets stored in our database for station/object KQ4OSL. If no packets are shown the sender has not sent any weather packets the latest 1 day(s).
| Time | Temp. | Humidity | Pressure | Rain* | Wind** | Luminosity | Snow |
|---|---|---|---|---|---|---|---|
| 1778074755 | 19.44° C | 90% | 1017.2 hPa | 0 mm | - | 121 W/m² | - |
| 1778072331 | 18.89° C | 90% | 1016.4 hPa | 0 mm | - | 89 W/m² | - |
| 1778071727 | 18.89° C | 90% | 1016.3 hPa | 0 mm | - | 78 W/m² | - |
| 1778068096 | 18.33° C | 94% | 1016.1 hPa | 0 mm | - | 25 W/m² | - |
| 1778067794 | 18.89° C | 94% | 1016 hPa | 0 mm | - | 21 W/m² | - |
| 1778067492 | 18.89° C | 93% | 1016.2 hPa | 0 mm | - | 19 W/m² | - |
| 1778065069 | 18.33° C | 95% | 1015.4 hPa | 0 mm | - | 4 W/m² | - |
| 1778064766 | 18.33° C | 94% | 1015.6 hPa | 0 mm | - | 3 W/m² | - |
| 1778063858 | 18.33° C | 94% | 1015.5 hPa | 0 mm | - | 0 W/m² | - |
| 1778062951 | 18.33° C | 93% | 1015.3 hPa | 0 mm | - | 0 W/m² | - |
| 1778062344 | 18.33° C | 93% | 1015 hPa | 0 mm | - | 0 W/m² | - |
| 1778062042 | 18.33° C | 93% | 1015 hPa | 0 mm | - | 0 W/m² | - |
| 1778061740 | 18.33° C | 93% | 1014.7 hPa | 0 mm | - | 0 W/m² | - |
| 1778060530 | 18.33° C | 93% | 1014.6 hPa | 0 mm | - | 0 W/m² | - |
| 1778059925 | 18.33° C | 93% | 1014.5 hPa | 0 mm | - | 0 W/m² | - |
| 1778059320 | 18.33° C | 93% | 1014.6 hPa | 0 mm | - | 0 W/m² | - |
| 1778058715 | 18.33° C | 92% | 1014.8 hPa | 0 mm | - | 0 W/m² | - |
| 1778058412 | 18.33° C | 92% | 1014.7 hPa | 0 mm | - | 0 W/m² | - |
| 1778058109 | 18.33° C | 93% | 1014.5 hPa | 0 mm | - | 0 W/m² | - |
| 1778057806 | 18.33° C | 93% | 1014.4 hPa | 0 mm | - | 0 W/m² | - |
| 1778057502 | 18.33° C | 93% | 1014.1 hPa | 0 mm | - | 0 W/m² | - |
| 1778056896 | 18.33° C | 93% | 1014.4 hPa | 0 mm | - | 0 W/m² | - |
| 1778055682 | 18.33° C | 91% | 1014.2 hPa | 0 mm | - | 0 W/m² | - |
| 1778055381 | 18.33° C | 91% | 1014.4 hPa | 0 mm | - | 0 W/m² | - |
| 1778055078 | 18.33° C | 90% | 1014.3 hPa | 0 mm | - | 0 W/m² | - |
* Rain latest hour (hover to see other rain measurements)
** Current wind speed in m/s (hover to see current wind gust speed)